createdAt,value
2023-05-17T00:00:16.124Z,4.27
2023-05-17T00:01:17.763Z,5.05
2023-05-17T00:02:21.716Z,5.53
2023-05-17T00:03:23.337Z,4.90
2023-05-17T00:04:25.245Z,4.05
2023-05-17T00:05:27.087Z,6.18
2023-05-17T00:06:29.409Z,3.60
2023-05-17T00:07:38.991Z,4.05
2023-05-17T00:08:40.602Z,4.07
2023-05-17T00:09:43.177Z,4.30
2023-05-17T00:10:44.967Z,6.15
2023-05-17T00:11:47.195Z,3.60
2023-05-17T00:12:48.858Z,3.53
2023-05-17T00:13:50.556Z,6.05
2023-05-17T00:14:54.048Z,4.43
2023-05-17T00:15:56.205Z,3.95
2023-05-17T00:17:00.160Z,3.67
2023-05-17T00:18:01.912Z,3.22
2023-05-17T00:19:03.761Z,4.75
2023-05-17T00:20:05.892Z,6.75
2023-05-17T00:21:09.053Z,4.07
2023-05-17T00:22:10.782Z,5.00
2023-05-17T00:23:12.419Z,4.47
2023-05-17T00:24:14.372Z,4.93
2023-05-17T00:25:17.355Z,4.15
2023-05-17T00:26:18.986Z,3.95
2023-05-17T00:27:22.163Z,4.90
2023-05-17T00:28:24.187Z,4.75
2023-05-17T00:29:26.267Z,4.90
2023-05-17T00:30:30.543Z,4.45
2023-05-17T00:31:32.282Z,4.10
2023-05-17T00:32:33.973Z,5.10
2023-05-17T00:33:35.653Z,4.95
2023-05-17T00:34:37.378Z,5.35
2023-05-17T00:35:39.153Z,6.07
2023-05-17T00:36:40.975Z,3.17
2023-05-17T00:37:48.422Z,6.07
2023-05-17T00:38:50.468Z,4.95
2023-05-17T00:39:53.270Z,5.75
2023-05-17T00:40:54.982Z,5.03
2023-05-17T00:41:57.931Z,4.20
2023-05-17T00:43:00.188Z,4.90
2023-05-17T00:44:04.025Z,4.43
2023-05-17T00:45:06.760Z,3.85
2023-05-17T00:46:09.248Z,6.65
2023-05-17T00:47:14.270Z,5.07
2023-05-17T00:48:17.524Z,4.85
2023-05-17T00:49:21.850Z,4.13
2023-05-17T00:50:23.531Z,4.20
2023-05-17T00:51:25.509Z,4.95
2023-05-17T00:52:27.184Z,4.18
2023-05-17T00:53:29.819Z,3.88
2023-05-17T00:54:31.622Z,3.88
2023-05-17T00:55:33.493Z,5.82
2023-05-17T00:56:35.157Z,4.72
2023-05-17T00:57:37.171Z,4.93
2023-05-17T00:58:41.073Z,4.75
2023-05-17T00:59:44.446Z,6.45
2023-05-17T01:00:46.787Z,4.18
2023-05-17T01:01:48.433Z,4.50
2023-05-17T01:02:50.959Z,4.70
2023-05-17T01:03:52.766Z,4.55
2023-05-17T01:04:54.485Z,3.97
2023-05-17T01:05:56.220Z,4.13
2023-05-17T01:06:59.741Z,6.47
2023-05-17T01:08:03.012Z,3.90
2023-05-17T01:09:05.548Z,5.75
2023-05-17T01:10:08.243Z,5.20
2023-05-17T01:11:18.933Z,5.97
2023-05-17T01:12:40.802Z,4.50
2023-05-17T01:13:49.075Z,4.13
2023-05-17T01:14:57.524Z,5.25
2023-05-17T01:16:16.247Z,3.35
2023-05-17T01:17:37.515Z,3.55
2023-05-17T01:18:41.692Z,5.20
2023-05-17T01:19:43.973Z,5.43
2023-05-17T01:20:48.486Z,5.37
2023-05-17T01:22:10.374Z,4.63
2023-05-17T01:23:28.626Z,6.28
2023-05-17T01:24:47.607Z,6.07
2023-05-17T01:26:01.453Z,5.60
2023-05-17T01:27:05.188Z,5.22
2023-05-17T01:28:07.935Z,4.95
2023-05-17T01:29:10.132Z,5.35
2023-05-17T01:30:13.400Z,5.00
2023-05-17T01:31:17.715Z,3.72
2023-05-17T01:32:19.919Z,4.60
2023-05-17T01:33:21.718Z,4.53
2023-05-17T01:34:30.643Z,5.03
2023-05-17T01:35:33.280Z,5.20
2023-05-17T01:36:36.054Z,5.40
2023-05-17T01:37:41.522Z,5.82
2023-05-17T01:38:43.159Z,4.40
2023-05-17T01:39:44.845Z,4.47
2023-05-17T01:40:50.384Z,4.50
2023-05-17T01:42:00.982Z,4.90
2023-05-17T01:43:06.778Z,5.45
2023-05-17T01:44:32.431Z,5.45
2023-05-17T01:45:43.339Z,4.28
2023-05-17T01:46:45.158Z,5.13
2023-05-17T01:48:00.320Z,6.07
2023-05-17T01:49:24.397Z,5.35
2023-05-17T01:50:27.446Z,6.35
2023-05-17T01:51:31.856Z,6.35
2023-05-17T01:52:43.470Z,7.80
2023-05-17T01:53:55.786Z,6.97
2023-05-17T01:55:16.968Z,5.45
2023-05-17T01:56:30.725Z,4.93
2023-05-17T01:57:34.078Z,4.60
2023-05-17T01:58:45.942Z,5.00
2023-05-17T01:59:48.767Z,5.15
2023-05-17T02:00:52.495Z,4.93
2023-05-17T02:02:21.532Z,3.92
2023-05-17T02:03:23.263Z,5.05
2023-05-17T02:04:24.995Z,4.68
2023-05-17T02:05:26.790Z,6.57
2023-05-17T02:06:29.087Z,5.45
2023-05-17T02:07:33.844Z,5.18
2023-05-17T02:08:36.265Z,5.10
2023-05-17T02:09:39.550Z,5.38
2023-05-17T02:10:41.364Z,4.43
2023-05-17T02:11:43.239Z,4.47
2023-05-17T02:12:45.307Z,4.80
2023-05-17T02:13:47.276Z,5.15
2023-05-17T02:14:49.104Z,5.93
2023-05-17T02:15:50.911Z,6.43
2023-05-17T02:16:52.970Z,5.20
2023-05-17T02:17:55.105Z,5.15
2023-05-17T02:18:57.452Z,6.43
2023-05-17T02:19:59.163Z,6.38
2023-05-17T02:21:01.417Z,4.65
2023-05-17T02:22:03.025Z,6.22
2023-05-17T02:23:05.020Z,5.15
2023-05-17T02:24:06.837Z,5.50
2023-05-17T02:25:08.797Z,4.63
2023-05-17T02:26:11.495Z,5.03
2023-05-17T02:27:13.233Z,5.88
2023-05-17T02:28:14.868Z,6.07
2023-05-17T02:29:17.213Z,5.20
2023-05-17T02:30:19.065Z,5.78
2023-05-17T02:31:21.271Z,7.45
2023-05-17T02:32:23.417Z,3.92
2023-05-17T02:33:25.383Z,5.85
2023-05-17T02:34:27.128Z,5.38
2023-05-17T02:35:29.077Z,5.07
2023-05-17T02:36:33.074Z,5.63
2023-05-17T02:37:34.740Z,5.28
2023-05-17T02:38:36.354Z,6.13
2023-05-17T02:39:38.035Z,4.47
2023-05-17T02:40:41.278Z,4.90
2023-05-17T02:41:43.438Z,4.13
2023-05-17T02:42:45.377Z,4.88
2023-05-17T02:43:47.017Z,4.68
2023-05-17T02:44:52.994Z,5.05
2023-05-17T02:45:55.343Z,3.90
2023-05-17T02:47:00.995Z,4.68
2023-05-17T02:48:02.849Z,6.50
2023-05-17T02:49:06.753Z,5.10
2023-05-17T02:50:09.622Z,5.25
2023-05-17T02:51:11.300Z,5.55
2023-05-17T02:52:13.270Z,7.05
2023-05-17T02:53:14.838Z,5.85
2023-05-17T02:54:16.489Z,6.22
2023-05-17T02:55:18.198Z,5.45
2023-05-17T02:56:19.911Z,4.82
2023-05-17T02:57:21.577Z,4.70
2023-05-17T02:58:23.255Z,6.32
2023-05-17T02:59:24.885Z,4.75
2023-05-17T03:00:26.553Z,5.03
2023-05-17T03:01:28.306Z,5.85
2023-05-17T03:02:30.006Z,6.47
2023-05-17T03:03:32.442Z,5.72
2023-05-17T03:04:34.260Z,5.65
2023-05-17T03:05:36.356Z,6.05
2023-05-17T03:06:38.273Z,4.80
2023-05-17T03:07:39.968Z,7.90
2023-05-17T03:08:41.605Z,8.00
2023-05-17T03:09:43.371Z,6.68
2023-05-17T03:10:45.021Z,5.45
2023-05-17T03:11:46.689Z,5.13
2023-05-17T03:12:48.265Z,6.00
2023-05-17T03:13:51.874Z,5.07
2023-05-17T03:14:54.597Z,4.47
2023-05-17T03:15:56.387Z,5.25
2023-05-17T03:16:58.137Z,5.88
2023-05-17T03:18:00.272Z,5.97
2023-05-17T03:19:02.284Z,7.00
2023-05-17T03:20:04.356Z,5.53
2023-05-17T03:21:06.133Z,4.72
2023-05-17T03:22:07.842Z,4.75
2023-05-17T03:23:13.529Z,5.60
2023-05-17T03:24:15.875Z,7.80
2023-05-17T03:25:17.503Z,6.50
2023-05-17T03:26:20.032Z,6.70
2023-05-17T03:27:21.698Z,5.90
2023-05-17T03:28:24.773Z,7.07
2023-05-17T03:29:26.384Z,6.35
2023-05-17T03:30:28.193Z,5.65
2023-05-17T03:31:30.263Z,6.15
2023-05-17T03:32:32.052Z,5.70
2023-05-17T03:33:33.853Z,7.78
2023-05-17T03:35:37.172Z,5.35
2023-05-17T03:36:39.786Z,5.72
2023-05-17T03:37:42.311Z,6.93
2023-05-17T03:38:45.505Z,6.47
2023-05-17T03:39:47.119Z,7.57
2023-05-17T03:40:51.460Z,7.85
2023-05-17T03:41:53.137Z,5.93
2023-05-17T03:43:56.523Z,8.52
2023-05-17T03:45:00.907Z,7.65
2023-05-17T03:46:02.483Z,7.45
2023-05-17T03:47:07.235Z,6.78
2023-05-17T03:48:09.161Z,6.80
2023-05-17T03:49:11.413Z,6.43
2023-05-17T03:50:13.092Z,7.07
2023-05-17T03:51:15.050Z,9.02
2023-05-17T03:52:17.155Z,5.95
2023-05-17T03:53:18.839Z,7.47
2023-05-17T03:54:23.731Z,6.78
2023-05-17T03:55:26.694Z,5.22
2023-05-17T03:56:29.268Z,6.40
2023-05-17T03:57:30.885Z,10.80
2023-05-17T03:58:32.809Z,6.88
2023-05-17T03:59:34.486Z,8.65
2023-05-17T04:00:36.626Z,10.85
2023-05-17T04:01:38.237Z,9.70
2023-05-17T04:02:40.348Z,8.13
2023-05-17T04:03:42.103Z,8.18
2023-05-17T04:04:53.394Z,8.52
2023-05-17T04:06:04.116Z,6.88
2023-05-17T04:07:05.740Z,9.18
2023-05-17T04:08:07.650Z,10.13
2023-05-17T04:09:13.778Z,8.40
2023-05-17T04:10:15.551Z,6.38
2023-05-17T04:11:23.998Z,6.63
2023-05-17T04:12:27.023Z,8.57
2023-05-17T04:13:29.308Z,6.43
2023-05-17T04:14:33.652Z,8.05
2023-05-17T04:15:35.544Z,7.10
2023-05-17T04:16:37.244Z,7.70
2023-05-17T04:17:39.718Z,9.38
2023-05-17T04:18:43.941Z,7.50
2023-05-17T04:19:45.757Z,9.32
2023-05-17T04:20:47.404Z,7.68
2023-05-17T04:21:52.642Z,7.07
2023-05-17T04:22:54.414Z,7.13
2023-05-17T04:23:56.080Z,6.90
2023-05-17T04:24:57.984Z,8.70
2023-05-17T04:26:00.093Z,7.80
2023-05-17T04:27:03.541Z,5.95
2023-05-17T04:28:06.523Z,6.55
2023-05-17T04:29:08.215Z,6.57
2023-05-17T04:30:13.565Z,7.43
2023-05-17T04:31:16.592Z,6.70
2023-05-17T04:32:19.058Z,7.80
2023-05-17T04:33:23.549Z,7.50
2023-05-17T04:34:25.356Z,6.05
2023-05-17T04:35:27.537Z,7.80
2023-05-17T04:36:30.717Z,7.20
2023-05-17T04:37:32.873Z,8.40
2023-05-17T04:38:37.096Z,5.97
2023-05-17T04:39:38.791Z,6.30
2023-05-17T04:40:43.236Z,6.80
2023-05-17T04:41:45.507Z,6.50
2023-05-17T04:42:47.701Z,6.60
2023-05-17T04:43:49.419Z,7.87
2023-05-17T04:44:52.280Z,5.40
2023-05-17T04:46:01.576Z,8.77
2023-05-17T04:47:04.048Z,9.73
2023-05-17T04:48:07.092Z,6.90
2023-05-17T04:49:09.310Z,6.68
2023-05-17T04:50:11.733Z,7.03
2023-05-17T04:51:14.365Z,7.88
2023-05-17T04:52:15.991Z,7.20
2023-05-17T04:53:17.770Z,7.10
2023-05-17T04:54:19.336Z,7.53
2023-05-17T04:55:23.995Z,7.43
2023-05-17T04:56:27.067Z,6.07
2023-05-17T04:57:29.292Z,5.90
2023-05-17T04:58:32.443Z,8.85
2023-05-17T04:59:34.076Z,8.82
2023-05-17T05:00:35.773Z,6.03
2023-05-17T05:01:37.490Z,5.80
2023-05-17T05:02:39.218Z,6.88
2023-05-17T05:03:40.902Z,6.95
2023-05-17T05:04:43.865Z,6.40
2023-05-17T05:05:46.401Z,7.28
2023-05-17T05:53:35.007Z,9.32
2023-05-17T05:54:36.663Z,10.63
2023-05-17T05:55:42.768Z,11.68
2023-05-17T05:56:45.544Z,9.30
2023-05-17T05:57:47.323Z,10.27
2023-05-17T05:58:48.942Z,10.02
2023-05-17T05:59:53.681Z,11.43
2023-05-17T06:00:55.860Z,7.07
2023-05-17T06:01:57.489Z,8.73
2023-05-17T06:03:00.419Z,9.52
2023-05-17T06:04:02.154Z,14.57
2023-05-17T06:05:05.110Z,6.93
2023-05-17T06:06:09.526Z,6.55
2023-05-17T06:07:11.199Z,10.93
2023-05-17T06:08:13.419Z,8.20
2023-05-17T06:09:15.132Z,9.65
2023-05-17T06:10:17.392Z,8.30
2023-05-17T06:11:19.051Z,10.93
2023-05-17T06:12:21.496Z,8.60
2023-05-17T06:16:01.813Z,10.95
2023-05-17T06:17:25.608Z,8.68
2023-05-17T06:19:25.353Z,7.65
2023-05-17T06:21:05.445Z,9.50
2023-05-17T06:22:14.646Z,5.90
2023-05-17T06:23:17.278Z,5.72
2023-05-17T06:24:19.272Z,7.32
2023-05-17T06:25:24.345Z,8.50
2023-05-17T06:26:26.476Z,8.80
2023-05-17T06:27:28.612Z,6.45
2023-05-17T06:28:30.805Z,7.60
2023-05-17T06:29:32.645Z,9.38
2023-05-17T06:30:34.656Z,10.25
2023-05-17T06:31:36.630Z,5.13
2023-05-17T06:32:38.570Z,6.10
2023-05-17T06:33:48.705Z,7.68
2023-05-17T06:34:51.192Z,6.18
2023-05-17T06:35:56.342Z,9.52
2023-05-17T06:37:32.027Z,8.18
2023-05-17T06:38:34.813Z,5.90
2023-05-17T06:39:37.902Z,9.45
2023-05-17T06:40:41.327Z,7.70
2023-05-17T06:41:46.046Z,7.38
2023-05-17T06:42:48.457Z,7.88
2023-05-17T06:43:50.618Z,9.15
2023-05-17T06:44:53.102Z,7.82
2023-05-17T06:45:55.186Z,9.98
2023-05-17T06:46:58.269Z,9.82
2023-05-17T06:48:03.274Z,8.55
2023-05-17T06:49:06.122Z,9.15
2023-05-17T06:50:09.178Z,7.03
2023-05-17T06:51:17.722Z,8.40
2023-05-17T06:52:28.204Z,6.88
2023-05-17T06:53:35.518Z,4.53
2023-05-17T06:54:37.817Z,8.32
2023-05-17T06:55:40.643Z,6.68
2023-05-17T06:56:43.304Z,6.78
2023-05-17T06:57:47.763Z,7.55
2023-05-17T06:58:49.814Z,6.75
2023-05-17T06:59:52.506Z,6.15
2023-05-17T07:00:54.703Z,8.23
2023-05-17T07:01:57.095Z,8.98
2023-05-17T07:02:59.501Z,8.82
2023-05-17T07:04:04.093Z,6.55
2023-05-17T07:05:07.279Z,8.60
2023-05-17T07:06:09.762Z,5.80
2023-05-17T07:07:12.979Z,6.55
2023-05-17T07:08:16.089Z,8.93
2023-05-17T07:09:19.260Z,7.93
2023-05-17T07:10:21.436Z,6.50
2023-05-17T08:01:24.828Z,10.65
2023-05-17T08:02:28.219Z,8.35
2023-05-17T08:03:31.383Z,8.90
2023-05-17T08:04:39.225Z,7.25
2023-05-17T08:05:41.619Z,8.68
2023-05-17T08:06:47.307Z,6.30
2023-05-17T08:07:50.164Z,7.00
2023-05-17T08:08:52.588Z,8.48
2023-05-17T08:09:55.007Z,11.98
2023-05-17T08:10:57.823Z,6.88
2023-05-17T08:12:02.474Z,8.90
2023-05-17T08:13:07.825Z,9.93
2023-05-17T08:14:11.744Z,9.60
2023-05-17T08:15:14.266Z,6.95
2023-05-17T08:16:20.071Z,7.93
2023-05-17T08:17:23.049Z,13.10
2023-05-17T08:18:27.017Z,8.55
2023-05-17T08:19:29.670Z,9.70
2023-05-17T08:20:35.557Z,8.23
2023-05-17T08:21:37.578Z,7.75
2023-05-17T08:22:40.747Z,10.82
2023-05-17T08:23:43.717Z,7.68
2023-05-17T08:24:49.156Z,7.88
2023-05-17T08:39:18.251Z,8.68
2023-05-17T08:40:22.113Z,7.28
2023-05-17T08:41:24.404Z,9.35
2023-05-17T08:42:26.817Z,8.25
2023-05-17T08:43:30.048Z,7.13
2023-05-17T08:44:32.522Z,6.78
2023-05-17T08:45:35.303Z,7.43
2023-05-17T08:46:44.937Z,5.88
2023-05-17T08:47:48.317Z,11.18
2023-05-17T08:48:52.215Z,6.68
2023-05-17T08:49:55.714Z,5.30
2023-05-17T08:51:00.997Z,8.52
2023-05-17T08:52:10.538Z,5.60
2023-05-17T08:53:16.948Z,9.23
2023-05-17T08:54:30.812Z,10.73
2023-05-17T08:55:33.736Z,10.35
2023-05-17T08:56:44.116Z,10.15
2023-05-17T08:57:47.418Z,9.10
2023-05-17T08:58:57.163Z,9.02
2023-05-17T09:00:19.735Z,9.23
2023-05-17T09:01:24.344Z,9.20
2023-05-17T09:02:31.960Z,7.88
2023-05-17T09:03:36.598Z,7.35
2023-05-17T09:04:40.574Z,6.68
2023-05-17T09:05:49.878Z,6.90
2023-05-17T09:07:10.696Z,7.70
2023-05-17T09:08:18.033Z,7.83
2023-05-17T09:09:24.158Z,8.88
2023-05-17T09:10:31.272Z,8.23
2023-05-17T09:11:37.773Z,7.38
2023-05-17T09:12:47.151Z,8.65
2023-05-17T09:14:01.129Z,12.05
2023-05-17T09:15:13.660Z,5.82
2023-05-17T09:16:52.774Z,7.97
2023-05-17T09:18:03.110Z,7.43
2023-05-17T09:19:07.853Z,7.88
2023-05-17T09:20:10.974Z,8.23
2023-05-17T09:21:14.852Z,6.55
2023-05-17T09:22:20.019Z,7.95
2023-05-17T09:23:22.935Z,7.60
2023-05-17T09:24:29.660Z,6.32
2023-05-17T09:25:32.709Z,7.82
2023-05-17T09:26:48.270Z,6.60
2023-05-17T09:28:11.891Z,6.75
2023-05-17T09:29:20.918Z,7.68
2023-05-17T09:30:30.071Z,9.32
2023-05-17T09:31:33.792Z,6.95
2023-05-17T09:32:36.171Z,8.20
2023-05-17T09:33:51.335Z,6.57
2023-05-17T09:34:59.180Z,5.53
2023-05-17T09:36:02.391Z,8.30
2023-05-17T09:37:12.753Z,8.85
2023-05-17T09:38:14.946Z,7.33
2023-05-17T09:39:17.847Z,8.65
2023-05-17T09:40:24.545Z,9.00
2023-05-17T09:41:52.061Z,7.63
2023-05-17T09:42:57.984Z,8.65
2023-05-17T09:44:05.595Z,6.40
2023-05-17T09:45:15.513Z,9.65
2023-05-17T09:46:18.093Z,9.50
2023-05-17T09:47:34.835Z,7.05
2023-05-17T09:48:43.116Z,7.68
2023-05-17T09:49:48.508Z,5.97
2023-05-17T09:50:51.553Z,5.75
2023-05-17T09:51:55.447Z,6.28
2023-05-17T09:52:57.794Z,8.13
2023-05-17T09:54:01.433Z,5.82
2023-05-17T09:55:08.853Z,7.85
2023-05-17T09:56:24.370Z,7.35
2023-05-17T09:57:46.214Z,7.07
2023-05-17T09:58:51.418Z,8.63
2023-05-17T09:59:57.972Z,6.88
2023-05-17T10:01:02.617Z,7.72
2023-05-17T10:02:12.013Z,11.30
2023-05-17T10:03:14.346Z,8.05
2023-05-17T10:04:21.552Z,7.45
2023-05-17T10:05:28.264Z,7.85
2023-05-17T10:06:44.704Z,8.10
2023-05-17T10:07:54.016Z,7.80
2023-05-17T10:08:57.859Z,7.65
2023-05-17T10:10:04.704Z,8.98
2023-05-17T10:11:09.033Z,8.45
2023-05-17T10:12:16.150Z,6.45
2023-05-17T10:13:22.536Z,12.20
2023-05-17T10:14:33.345Z,9.32
2023-05-17T10:15:56.015Z,5.95
2023-05-17T10:17:05.288Z,7.93
2023-05-17T10:18:13.094Z,7.47
2023-05-17T10:19:23.633Z,8.70
2023-05-17T10:20:30.898Z,7.60
2023-05-17T10:21:34.383Z,7.57
2023-05-17T10:22:40.525Z,6.93
2023-05-17T10:23:46.099Z,7.80
2023-05-17T10:24:55.059Z,7.03
2023-05-17T10:26:12.614Z,6.95
2023-05-17T10:27:27.246Z,6.38
2023-05-17T10:28:32.152Z,7.07
2023-05-17T10:29:37.402Z,6.78
2023-05-17T10:30:44.108Z,6.63
2023-05-17T10:31:56.692Z,7.32
2023-05-17T10:33:12.561Z,6.32
2023-05-17T10:34:23.774Z,7.75
2023-05-17T10:35:30.430Z,5.85
2023-05-17T10:36:59.231Z,6.68
2023-05-17T10:38:26.295Z,7.68
2023-05-17T10:39:49.767Z,6.30
2023-05-17T10:40:56.496Z,7.13
2023-05-17T10:42:14.772Z,7.18
2023-05-17T10:43:23.546Z,5.53
2023-05-17T10:44:32.046Z,6.10
2023-05-17T10:45:43.252Z,6.20
2023-05-17T10:46:57.636Z,7.70
2023-05-17T10:48:03.807Z,7.22
2023-05-17T10:49:06.696Z,6.57
2023-05-17T10:50:18.441Z,16.77
2023-05-17T10:51:31.013Z,8.57
2023-05-17T10:52:41.315Z,7.50
2023-05-17T10:54:06.335Z,6.50
2023-05-17T10:55:08.859Z,6.68
2023-05-17T10:56:11.027Z,5.75
2023-05-17T10:57:20.647Z,7.78
2023-05-17T10:58:22.716Z,7.72
2023-05-17T10:59:28.685Z,7.90
2023-05-17T11:00:33.788Z,8.20
2023-05-17T11:01:54.763Z,8.48
2023-05-17T11:03:14.622Z,8.75
2023-05-17T11:04:24.465Z,7.50
2023-05-17T11:05:27.906Z,7.20
2023-05-17T11:06:36.079Z,7.68
2023-05-17T11:07:37.823Z,7.25
2023-05-17T11:08:47.647Z,6.80
2023-05-17T11:09:50.685Z,7.10
2023-05-17T11:11:10.683Z,7.40
2023-05-17T11:12:13.156Z,8.80
2023-05-17T11:13:26.769Z,7.03
2023-05-17T11:14:31.105Z,6.45
2023-05-17T11:15:35.537Z,8.75
2023-05-17T11:16:37.935Z,6.93
2023-05-17T11:17:42.792Z,6.07
2023-05-17T11:18:51.167Z,7.10
2023-05-17T11:19:53.367Z,6.75
2023-05-17T11:21:08.669Z,7.50
2023-05-17T11:22:12.472Z,7.30
2023-05-17T11:23:17.003Z,8.65
2023-05-17T11:24:27.048Z,7.97
2023-05-17T11:25:30.698Z,6.65
2023-05-17T11:26:37.952Z,9.32
2023-05-17T11:27:45.512Z,8.48
2023-05-17T11:28:47.300Z,5.67
2023-05-17T11:29:49.206Z,7.05
2023-05-17T11:30:52.537Z,8.37
2023-05-17T11:31:54.313Z,7.35
2023-05-17T11:33:05.696Z,6.78
2023-05-17T11:34:11.428Z,8.07
2023-05-17T11:35:13.404Z,8.95
2023-05-17T11:36:24.188Z,5.47
2023-05-17T11:37:27.709Z,7.03
2023-05-17T11:38:33.188Z,7.47
2023-05-17T11:39:35.053Z,5.93
2023-05-17T11:40:36.924Z,7.20
2023-05-17T11:41:43.007Z,5.22
2023-05-17T11:42:45.353Z,6.28
2023-05-17T11:43:50.356Z,7.13
2023-05-17T11:44:52.003Z,6.38
2023-05-17T11:45:55.427Z,5.32
2023-05-17T11:47:01.810Z,5.80
2023-05-17T11:48:05.038Z,6.47
2023-05-17T11:49:07.805Z,5.50
2023-05-17T11:50:09.860Z,6.63
2023-05-17T11:51:14.114Z,5.68
2023-05-17T11:52:16.893Z,6.93
2023-05-17T11:53:19.133Z,6.00
2023-05-17T11:54:23.248Z,5.47
2023-05-17T11:55:24.948Z,8.95
2023-05-17T11:56:39.495Z,6.32
2023-05-17T11:57:44.206Z,6.65
2023-05-17T11:58:46.142Z,6.70
2023-05-17T11:59:48.039Z,6.05
2023-05-17T12:00:56.431Z,5.78
2023-05-17T12:01:59.093Z,5.75
2023-05-17T12:03:17.921Z,5.47
2023-05-17T12:04:27.014Z,8.48
2023-05-17T12:05:28.980Z,7.20
2023-05-17T12:06:31.492Z,7.30
2023-05-17T12:07:34.825Z,7.25
2023-05-17T12:08:37.717Z,6.40
2023-05-17T12:09:40.720Z,7.47
2023-05-17T12:10:47.131Z,6.50
2023-05-17T12:11:49.734Z,4.83
2023-05-17T12:12:52.885Z,7.03
2023-05-17T12:13:54.617Z,5.85
2023-05-17T12:14:56.797Z,6.40
2023-05-17T12:16:00.662Z,7.47
2023-05-17T12:17:04.502Z,5.80
2023-05-17T12:18:06.682Z,7.43
2023-05-17T12:19:17.644Z,7.35
2023-05-17T12:20:19.910Z,8.80
2023-05-17T12:21:21.989Z,5.72
2023-05-17T12:22:23.833Z,7.55
2023-05-17T12:23:30.124Z,7.68
2023-05-17T12:24:42.000Z,6.30
2023-05-17T12:25:43.858Z,5.95
2023-05-17T12:26:46.783Z,6.32
2023-05-17T12:27:48.515Z,6.20
2023-05-17T12:28:54.244Z,5.80
2023-05-17T12:29:56.998Z,5.68
2023-05-17T12:31:01.435Z,7.22
2023-05-17T12:32:04.116Z,9.63
2023-05-17T12:33:06.057Z,6.32
2023-05-17T12:34:09.667Z,5.38
2023-05-17T12:35:12.385Z,8.10
2023-05-17T12:36:14.849Z,4.78
2023-05-17T12:37:16.602Z,6.47
2023-05-17T12:38:18.981Z,7.68
2023-05-17T12:39:24.222Z,6.05
2023-05-17T12:40:25.977Z,6.20
2023-05-17T12:41:29.236Z,6.95
2023-05-17T12:42:31.805Z,6.82
2023-05-17T12:43:34.340Z,5.65
2023-05-17T12:44:36.031Z,7.57
2023-05-17T12:45:37.791Z,5.82
2023-05-17T12:46:40.054Z,7.15
2023-05-17T12:47:42.763Z,5.72
2023-05-17T12:48:47.278Z,6.80
2023-05-17T12:49:54.732Z,7.10
2023-05-17T12:50:57.009Z,7.75
2023-05-17T12:52:04.930Z,6.78
2023-05-17T12:53:10.062Z,5.57
2023-05-17T12:54:13.051Z,8.40
2023-05-17T12:55:15.166Z,7.47
2023-05-17T12:56:22.500Z,7.60
2023-05-17T12:57:24.345Z,6.35
2023-05-17T12:58:26.502Z,7.28
2023-05-17T12:59:29.461Z,7.40
2023-05-17T13:00:32.184Z,7.50
2023-05-17T13:01:38.468Z,5.78
2023-05-17T13:02:44.462Z,6.43
2023-05-17T13:03:51.670Z,6.78
2023-05-17T13:04:53.515Z,8.63
2023-05-17T13:06:02.699Z,7.10
2023-05-17T13:07:05.446Z,8.27
2023-05-17T13:08:20.308Z,7.35
2023-05-17T13:09:24.336Z,6.05
2023-05-17T13:10:27.847Z,5.80
2023-05-17T13:11:29.807Z,6.35
2023-05-17T13:12:31.561Z,5.45
2023-05-17T13:13:33.373Z,5.97
2023-05-17T13:14:42.635Z,6.22
2023-05-17T13:15:50.427Z,5.75
2023-05-17T13:16:52.534Z,7.63
2023-05-17T13:17:58.898Z,6.03
2023-05-17T13:19:01.977Z,6.85
2023-05-17T13:20:06.482Z,7.00
2023-05-17T13:21:09.909Z,4.57
2023-05-17T13:22:12.038Z,7.90
2023-05-17T13:23:13.711Z,6.25
2023-05-17T13:24:16.949Z,8.65
2023-05-17T13:25:18.830Z,5.13
2023-05-17T13:26:22.501Z,8.50
2023-05-17T13:27:24.925Z,5.63
2023-05-17T13:28:26.898Z,5.20
2023-05-17T13:29:40.202Z,8.15
2023-05-17T13:30:46.197Z,6.05
2023-05-17T13:31:48.659Z,7.18
2023-05-17T13:32:51.576Z,4.07
2023-05-17T13:33:53.420Z,6.82
2023-05-17T13:34:55.648Z,5.22
2023-05-17T13:35:57.850Z,6.53
2023-05-17T13:36:59.512Z,8.07
2023-05-17T13:38:02.873Z,6.47
2023-05-17T13:39:05.214Z,6.07
2023-05-17T13:40:07.663Z,9.35
2023-05-17T13:41:09.950Z,5.38
2023-05-17T13:42:12.849Z,7.53
2023-05-17T13:43:16.229Z,6.28
2023-05-17T13:44:18.684Z,7.80
2023-05-17T13:45:20.581Z,7.60
2023-05-17T13:46:23.312Z,7.07
2023-05-17T13:47:25.256Z,6.70
2023-05-17T13:48:27.249Z,6.78
2023-05-17T13:49:29.016Z,6.68
2023-05-17T13:50:31.740Z,4.63
2023-05-17T13:51:34.978Z,8.23
2023-05-17T13:52:40.838Z,7.78
2023-05-17T13:53:48.052Z,5.95
2023-05-17T13:54:49.750Z,7.22
2023-05-17T13:55:51.617Z,7.47
2023-05-17T13:56:55.732Z,7.88
2023-05-17T13:57:57.429Z,6.60
2023-05-17T13:58:59.373Z,6.45
2023-05-17T14:00:01.226Z,7.00
2023-05-17T14:01:03.644Z,5.20
2023-05-17T14:02:05.710Z,7.07
2023-05-17T14:03:09.095Z,6.40
2023-05-17T14:04:11.699Z,5.60
2023-05-17T14:05:17.684Z,6.07
2023-05-17T14:06:19.369Z,6.72
2023-05-17T14:07:21.839Z,5.17
2023-05-17T14:08:23.591Z,10.25
2023-05-17T14:09:25.291Z,6.78
2023-05-17T14:10:27.128Z,7.28
2023-05-17T14:11:29.086Z,7.13
2023-05-17T14:12:32.150Z,8.25
2023-05-17T14:13:34.779Z,7.18
2023-05-17T14:14:36.451Z,6.07
2023-05-17T14:15:39.771Z,7.35
2023-05-17T14:16:41.741Z,7.35
2023-05-17T14:17:43.563Z,7.20
2023-05-17T14:18:46.134Z,5.63
2023-05-17T14:19:48.264Z,7.03
2023-05-17T14:20:50.278Z,7.63
2023-05-17T14:21:53.357Z,7.32
2023-05-17T14:22:56.897Z,8.40
2023-05-17T14:23:58.876Z,6.78
2023-05-17T14:25:00.629Z,8.93
2023-05-17T14:26:07.720Z,8.95
2023-05-17T14:27:09.866Z,7.25
2023-05-17T14:28:13.786Z,5.90
2023-05-17T14:29:15.517Z,7.68
2023-05-17T14:30:17.499Z,7.32
2023-05-17T14:31:19.604Z,5.88
2023-05-17T14:32:21.846Z,6.35
2023-05-17T14:33:23.855Z,5.22
2023-05-17T14:34:25.743Z,7.63
2023-05-17T14:35:27.523Z,6.53
2023-05-17T14:36:29.459Z,7.95
2023-05-17T14:37:31.043Z,5.47
2023-05-17T14:38:32.942Z,7.78
2023-05-17T14:39:34.576Z,6.53
2023-05-17T14:40:36.307Z,5.28
2023-05-17T14:41:39.758Z,6.50
2023-05-17T17:09:01.776Z,9.65
2023-05-17T17:10:03.565Z,6.72
2023-05-17T17:11:05.318Z,5.53
2023-05-17T17:12:20.506Z,9.45
2023-05-17T17:13:27.093Z,8.50
2023-05-17T17:14:28.791Z,4.57
2023-05-17T17:15:30.683Z,7.20
2023-05-17T17:16:34.071Z,5.78
2023-05-17T17:17:37.233Z,8.52
2023-05-17T17:18:38.911Z,10.00
2023-05-17T17:19:40.948Z,15.40
2023-05-17T17:20:42.582Z,11.95
2023-05-17T17:21:44.333Z,7.80
2023-05-17T17:22:48.610Z,7.57
2023-05-17T17:23:51.222Z,10.13
2023-05-17T17:24:53.343Z,10.38
2023-05-17T17:25:55.001Z,8.50
2023-05-17T17:26:56.582Z,4.88
2023-05-17T17:27:58.194Z,5.93
2023-05-17T17:28:59.803Z,6.90
2023-05-17T17:30:03.666Z,6.05
2023-05-17T17:31:08.606Z,6.80
2023-05-17T17:32:10.233Z,9.50
2023-05-17T17:33:12.150Z,8.85
2023-05-17T17:34:13.794Z,8.10
2023-05-17T17:35:15.606Z,8.27
2023-05-17T17:36:17.264Z,7.97
2023-05-17T17:37:18.909Z,7.97
2023-05-17T17:38:20.647Z,6.43
2023-05-17T17:39:22.730Z,7.38
2023-05-17T17:40:24.622Z,4.40
2023-05-17T17:41:26.791Z,10.02
2023-05-17T17:42:29.687Z,7.97
2023-05-17T17:43:33.175Z,10.82
2023-05-17T17:44:34.908Z,9.75
2023-05-17T17:45:39.062Z,7.07
2023-05-17T17:46:40.872Z,6.30
2023-05-17T17:47:44.860Z,5.30
2023-05-17T17:48:46.776Z,8.15
2023-05-17T17:49:48.415Z,11.00
2023-05-17T17:50:50.079Z,5.65
2023-05-17T18:49:01.768Z,9.98
2023-05-17T18:50:03.653Z,10.35
2023-05-17T18:51:05.229Z,9.65
2023-05-17T18:52:09.924Z,9.50
2023-05-17T18:53:13.489Z,14.48
2023-05-17T18:54:15.873Z,11.52
2023-05-17T18:55:17.552Z,12.75
2023-05-17T18:56:22.950Z,12.57
2023-05-17T18:57:24.683Z,13.80
2023-05-17T18:58:26.676Z,18.85
2023-05-17T18:59:28.362Z,12.45
2023-05-17T19:00:30.146Z,15.30
2023-05-17T19:01:32.115Z,13.10
2023-05-17T19:02:35.222Z,9.55
2023-05-17T19:03:37.223Z,17.25
2023-05-17T19:04:39.679Z,16.95
2023-05-17T19:05:43.111Z,10.75
2023-05-17T19:06:47.093Z,14.82
2023-05-17T19:07:48.773Z,16.17
2023-05-17T19:08:53.473Z,12.27
2023-05-17T19:09:55.058Z,11.38
2023-05-17T19:10:58.489Z,11.43
2023-05-17T19:12:03.713Z,16.70
2023-05-17T19:13:06.908Z,11.75
2023-05-17T19:14:08.998Z,12.52
2023-05-17T19:15:12.089Z,15.50
2023-05-17T19:16:15.748Z,15.60
2023-05-17T19:17:17.836Z,14.07
2023-05-17T19:18:22.873Z,15.10
2023-05-17T19:19:25.586Z,14.82
2023-05-17T19:20:29.377Z,13.18
2023-05-17T19:37:06.741Z,9.70
2023-05-17T19:38:08.873Z,12.00
2023-05-17T19:39:13.390Z,8.82
2023-05-17T19:40:15.323Z,8.93
2023-05-17T19:41:17.105Z,8.60
2023-05-17T19:42:21.765Z,6.93
2023-05-17T19:43:23.374Z,10.98
2023-05-17T19:44:24.973Z,9.57
2023-05-17T19:45:27.371Z,12.25
2023-05-17T19:46:29.360Z,11.18
2023-05-17T19:47:31.891Z,6.38
2023-05-17T19:48:33.660Z,10.65
2023-05-17T19:49:35.428Z,10.60
2023-05-17T19:50:37.965Z,8.55
2023-05-17T19:51:46.875Z,8.88